sensor_id;sensor_type;location;lat;lon;timestamp;pressure;altitude;pressure_sealevel;temperature;humidity
71976;BME280;68326;52.124;5.424;2023-06-10T00:01:38;101537.22;;;20.58;53.75
71976;BME280;68326;52.124;5.424;2023-06-10T00:04:04;101536.47;;;20.55;53.48
71976;BME280;68326;52.124;5.424;2023-06-10T00:06:31;101534.06;;;20.52;54.08
71976;BME280;68326;52.124;5.424;2023-06-10T00:09:05;101536.84;;;20.51;53.44
71976;BME280;68326;52.124;5.424;2023-06-10T00:11:32;101535.88;;;20.52;53.69
71976;BME280;68326;52.124;5.424;2023-06-10T00:13:59;101539.72;;;20.48;53.89
71976;BME280;68326;52.124;5.424;2023-06-10T00:16:26;101532.16;;;20.43;53.66
71976;BME280;68326;52.124;5.424;2023-06-10T00:18:53;101536.75;;;20.41;53.31
71976;BME280;68326;52.124;5.424;2023-06-10T00:21:22;101537.72;;;20.40;54.49
71976;BME280;68326;52.124;5.424;2023-06-10T00:23:48;101535.19;;;20.39;53.05
71976;BME280;68326;52.124;5.424;2023-06-10T00:26:15;101540.00;;;20.33;53.58
71976;BME280;68326;52.124;5.424;2023-06-10T00:28:42;101542.91;;;20.30;53.27
71976;BME280;68326;52.124;5.424;2023-06-10T00:31:11;101537.72;;;20.29;53.37
71976;BME280;68326;52.124;5.424;2023-06-10T00:33:37;101546.16;;;20.23;53.72
71976;BME280;68326;52.124;5.424;2023-06-10T00:36:04;101543.97;;;20.16;54.30
71976;BME280;68326;52.124;5.424;2023-06-10T00:38:30;101542.69;;;20.11;53.24
71976;BME280;68326;52.124;5.424;2023-06-10T00:40:58;101544.50;;;20.10;52.91
71976;BME280;68326;52.124;5.424;2023-06-10T00:43:24;101545.34;;;20.11;52.89
71976;BME280;68326;52.124;5.424;2023-06-10T00:45:51;101551.72;;;20.08;53.91
71976;BME280;68326;52.124;5.424;2023-06-10T00:48:19;101545.31;;;20.00;53.77
71976;BME280;68326;52.124;5.424;2023-06-10T00:50:46;101552.06;;;19.92;53.12
71976;BME280;68326;52.124;5.424;2023-06-10T00:53:13;101544.63;;;19.86;54.27
71976;BME280;68326;52.124;5.424;2023-06-10T00:55:41;101547.63;;;19.82;53.42
71976;BME280;68326;52.124;5.424;2023-06-10T00:58:08;101546.06;;;19.79;53.28
71976;BME280;68326;52.124;5.424;2023-06-10T01:00:35;101547.88;;;19.79;52.99
71976;BME280;68326;52.124;5.424;2023-06-10T01:03:02;101545.34;;;19.77;53.12
71976;BME280;68326;52.124;5.424;2023-06-10T01:05:29;101547.38;;;19.73;52.92
71976;BME280;68326;52.124;5.424;2023-06-10T01:08:26;101546.06;;;19.79;53.29
71976;BME280;68326;52.124;5.424;2023-06-10T01:11:00;101549.09;;;19.74;52.47
71976;BME280;68326;52.124;5.424;2023-06-10T01:13:27;101551.34;;;19.68;52.70
71976;BME280;68326;52.124;5.424;2023-06-10T01:15:56;101545.44;;;19.64;53.46
71976;BME280;68326;52.124;5.424;2023-06-10T01:18:22;101550.81;;;19.63;53.24
71976;BME280;68326;52.124;5.424;2023-06-10T01:20:49;101553.00;;;19.58;53.08
71976;BME280;68326;52.124;5.424;2023-06-10T01:23:17;101553.22;;;19.54;52.99
71976;BME280;68326;52.124;5.424;2023-06-10T01:26:01;101554.78;;;19.57;52.77
71976;BME280;68326;52.124;5.424;2023-06-10T01:28:37;101555.03;;;19.54;53.54
71976;BME280;68326;52.124;5.424;2023-06-10T01:34:07;101562.22;;;19.52;53.26
71976;BME280;68326;52.124;5.424;2023-06-10T01:36:35;101560.66;;;19.49;53.49
71976;BME280;68326;52.124;5.424;2023-06-10T01:39:04;101560.88;;;19.46;53.29
71976;BME280;68326;52.124;5.424;2023-06-10T01:41:31;101555.75;;;19.45;53.32
71976;BME280;68326;52.124;5.424;2023-06-10T01:43:58;101556.69;;;19.44;53.67
71976;BME280;68326;52.124;5.424;2023-06-10T01:46:25;101557.50;;;19.44;53.52
71976;BME280;68326;52.124;5.424;2023-06-10T01:48:51;101553.09;;;19.45;53.84
71976;BME280;68326;52.124;5.424;2023-06-10T01:51:18;101552.47;;;19.41;54.30
71976;BME280;68326;52.124;5.424;2023-06-10T01:53:44;101549.22;;;19.38;53.85
71976;BME280;68326;52.124;5.424;2023-06-10T01:56:11;101556.31;;;19.37;53.49
71976;BME280;68326;52.124;5.424;2023-06-10T01:58:43;101555.47;;;19.37;54.83
71976;BME280;68326;52.124;5.424;2023-06-10T02:01:10;101557.41;;;19.34;55.20
71976;BME280;68326;52.124;5.424;2023-06-10T02:03:36;101552.34;;;19.31;55.91
71976;BME280;68326;52.124;5.424;2023-06-10T02:06:03;101564.81;;;19.29;55.47
71976;BME280;68326;52.124;5.424;2023-06-10T02:08:30;101565.16;;;19.25;55.35
71976;BME280;68326;52.124;5.424;2023-06-10T02:10:56;101565.50;;;19.20;56.69
71976;BME280;68326;52.124;5.424;2023-06-10T02:13:23;101556.88;;;19.18;55.82
71976;BME280;68326;52.124;5.424;2023-06-10T02:15:49;101559.25;;;19.10;55.50
71976;BME280;68326;52.124;5.424;2023-06-10T02:18:16;101563.06;;;19.06;58.43
71976;BME280;68326;52.124;5.424;2023-06-10T02:20:42;101566.03;;;19.01;57.52
71976;BME280;68326;52.124;5.424;2023-06-10T02:23:08;101565.56;;;18.96;56.61
71976;BME280;68326;52.124;5.424;2023-06-10T02:25:35;101567.47;;;18.94;56.76
71976;BME280;68326;52.124;5.424;2023-06-10T02:28:01;101572.84;;;18.92;56.96
71976;BME280;68326;52.124;5.424;2023-06-10T02:30:29;101574.75;;;18.90;57.97
71976;BME280;68326;52.124;5.424;2023-06-10T02:32:56;101574.13;;;18.87;58.16
71976;BME280;68326;52.124;5.424;2023-06-10T02:35:23;101578.81;;;18.83;57.85
71976;BME280;68326;52.124;5.424;2023-06-10T02:37:50;101580.94;;;18.78;59.11
71976;BME280;68326;52.124;5.424;2023-06-10T02:40:17;101579.22;;;18.77;58.57
71976;BME280;68326;52.124;5.424;2023-06-10T02:42:43;101574.91;;;18.76;58.40
71976;BME280;68326;52.124;5.424;2023-06-10T02:45:10;101579.44;;;18.74;57.83
71976;BME280;68326;52.124;5.424;2023-06-10T02:47:37;101583.78;;;18.75;59.60
71976;BME280;68326;52.124;5.424;2023-06-10T02:50:05;101588.66;;;18.68;59.22
71976;BME280;68326;52.124;5.424;2023-06-10T02:52:31;101581.09;;;18.64;59.76
71976;BME280;68326;52.124;5.424;2023-06-10T02:54:58;101583.44;;;18.56;60.22
71976;BME280;68326;52.124;5.424;2023-06-10T02:57:25;101580.28;;;18.50;60.44
71976;BME280;68326;52.124;5.424;2023-06-10T02:59:51;101575.97;;;18.49;61.22
71976;BME280;68326;52.124;5.424;2023-06-10T03:02:19;101575.34;;;18.46;61.05
71976;BME280;68326;52.124;5.424;2023-06-10T03:04:47;101578.94;;;18.45;61.06
71976;BME280;68326;52.124;5.424;2023-06-10T03:07:14;101580.94;;;18.41;61.79
71976;BME280;68326;52.124;5.424;2023-06-10T03:09:40;101575.19;;;18.36;63.38
71976;BME280;68326;52.124;5.424;2023-06-10T03:12:10;101582.53;;;18.31;63.94
71976;BME280;68326;52.124;5.424;2023-06-10T03:14:37;101580.88;;;18.30;62.03
71976;BME280;68326;52.124;5.424;2023-06-10T03:17:05;101576.44;;;18.30;61.16
71976;BME280;68326;52.124;5.424;2023-06-10T03:19:32;101581.47;;;18.33;61.61
71976;BME280;68326;52.124;5.424;2023-06-10T03:22:10;101582.13;;;18.37;61.37
71976;BME280;68326;52.124;5.424;2023-06-10T03:24:37;101586.16;;;18.30;60.45
71976;BME280;68326;52.124;5.424;2023-06-10T03:27:10;101586.03;;;18.31;61.27
71976;BME280;68326;52.124;5.424;2023-06-10T03:29:37;101590.88;;;18.25;61.48
71976;BME280;68326;52.124;5.424;2023-06-10T03:32:04;101583.22;;;18.22;61.28
71976;BME280;68326;52.124;5.424;2023-06-10T03:34:31;101586.69;;;18.22;61.16
71976;BME280;68326;52.124;5.424;2023-06-10T03:36:57;101592.44;;;18.27;61.34
71976;BME280;68326;52.124;5.424;2023-06-10T03:39:25;101589.72;;;18.29;62.07
71976;BME280;68326;52.124;5.424;2023-06-10T03:41:55;101597.00;;;18.25;61.46
71976;BME280;68326;52.124;5.424;2023-06-10T03:44:24;101595.41;;;18.23;62.17
71976;BME280;68326;52.124;5.424;2023-06-10T03:46:52;101592.91;;;18.21;62.40
71976;BME280;68326;52.124;5.424;2023-06-10T03:49:19;101597.44;;;18.19;62.93
71976;BME280;68326;52.124;5.424;2023-06-10T03:51:45;101596.47;;;18.20;62.45
71976;BME280;68326;52.124;5.424;2023-06-10T03:54:12;101601.84;;;18.19;61.57
71976;BME280;68326;52.124;5.424;2023-06-10T03:56:39;101601.84;;;18.19;62.48
71976;BME280;68326;52.124;5.424;2023-06-10T03:59:05;101601.84;;;18.19;62.12
71976;BME280;68326;52.124;5.424;2023-06-10T04:01:32;101596.47;;;18.20;61.95
71976;BME280;68326;52.124;5.424;2023-06-10T04:03:59;101600.81;;;18.21;62.08
71976;BME280;68326;52.124;5.424;2023-06-10T04:06:27;101600.59;;;18.24;62.64
71976;BME280;68326;52.124;5.424;2023-06-10T04:08:55;101603.56;;;18.20;62.42
71976;BME280;68326;52.124;5.424;2023-06-10T04:11:26;101604.06;;;18.25;62.55
71976;BME280;68326;52.124;5.424;2023-06-10T04:13:52;101604.91;;;18.25;62.46
71976;BME280;68326;52.124;5.424;2023-06-10T04:16:20;101606.59;;;18.26;63.66
71976;BME280;68326;52.124;5.424;2023-06-10T04:18:47;101607.44;;;18.27;64.31
71976;BME280;68326;52.124;5.424;2023-06-10T04:21:14;101609.44;;;18.23;63.65
71976;BME280;68326;52.124;5.424;2023-06-10T04:23:40;101615.34;;;18.27;63.31
71976;BME280;68326;52.124;5.424;2023-06-10T04:26:07;101616.16;;;18.27;64.23
71976;BME280;68326;52.124;5.424;2023-06-10T04:28:34;101614.91;;;18.33;64.28
71976;BME280;68326;52.124;5.424;2023-06-10T04:31:00;101619.00;;;18.37;63.43
71976;BME280;68326;52.124;5.424;2023-06-10T04:33:28;101625.94;;;18.38;63.84
71976;BME280;68326;52.124;5.424;2023-06-10T04:35:54;101625.13;;;18.38;65.02
71976;BME280;68326;52.124;5.424;2023-06-10T04:38:21;101620.56;;;18.40;62.91
71976;BME280;68326;52.124;5.424;2023-06-10T04:40:47;101622.78;;;18.46;63.31
71976;BME280;68326;52.124;5.424;2023-06-10T04:43:14;101622.56;;;18.49;64.65
71976;BME280;68326;52.124;5.424;2023-06-10T04:45:40;101630.16;;;18.53;65.14
71976;BME280;68326;52.124;5.424;2023-06-10T04:48:11;101631.72;;;18.56;64.78
71976;BME280;68326;52.124;5.424;2023-06-10T04:50:37;101626.94;;;18.61;65.06
71976;BME280;68326;52.124;5.424;2023-06-10T04:53:05;101636.44;;;18.64;64.10
71976;BME280;68326;52.124;5.424;2023-06-10T04:55:32;101632.00;;;18.64;64.65
71976;BME280;68326;52.124;5.424;2023-06-10T04:58:00;101626.16;;;18.72;64.57
71976;BME280;68326;52.124;5.424;2023-06-10T05:00:26;101631.97;;;18.77;64.37
71976;BME280;68326;52.124;5.424;2023-06-10T05:02:53;101631.03;;;18.78;64.49
71976;BME280;68326;52.124;5.424;2023-06-10T05:05:20;101632.41;;;18.84;64.10
71976;BME280;68326;52.124;5.424;2023-06-10T05:07:46;101633.03;;;18.87;63.82
71976;BME280;68326;52.124;5.424;2023-06-10T05:10:14;101636.38;;;18.89;65.59
71976;BME280;68326;52.124;5.424;2023-06-10T05:12:41;101635.22;;;18.93;65.64
71976;BME280;68326;52.124;5.424;2023-06-10T05:15:08;101629.34;;;19.01;64.52
71976;BME280;68326;52.124;5.424;2023-06-10T05:17:35;101626.28;;;19.07;65.47
71976;BME280;68326;52.124;5.424;2023-06-10T05:20:03;101627.72;;;19.11;65.63
71976;BME280;68326;52.124;5.424;2023-06-10T05:22:29;101632.16;;;19.11;65.13
71976;BME280;68326;52.124;5.424;2023-06-10T05:24:56;101626.31;;;19.19;65.13
71976;BME280;68326;52.124;5.424;2023-06-10T05:27:23;101627.03;;;19.21;65.23
71976;BME280;68326;52.124;5.424;2023-06-10T05:29:50;101636.31;;;19.26;65.11
71976;BME280;68326;52.124;5.424;2023-06-10T05:32:18;101625.28;;;19.32;65.12
71976;BME280;68326;52.124;5.424;2023-06-10T05:34:44;101625.56;;;19.41;65.09
71976;BME280;68326;52.124;5.424;2023-06-10T05:37:12;101631.94;;;19.49;63.92
71976;BME280;68326;52.124;5.424;2023-06-10T05:39:39;101636.03;;;19.53;63.93
71976;BME280;68326;52.124;5.424;2023-06-10T05:42:06;101638.53;;;19.55;65.00
71976;BME280;68326;52.124;5.424;2023-06-10T05:44:34;101643.50;;;19.60;64.17
71976;BME280;68326;52.124;5.424;2023-06-10T05:47:00;101640.50;;;19.64;64.32
71976;BME280;68326;52.124;5.424;2023-06-10T05:49:27;101640.13;;;19.69;65.28
71976;BME280;68326;52.124;5.424;2023-06-10T05:51:53;101645.94;;;19.74;64.28
71976;BME280;68326;52.124;5.424;2023-06-10T05:54:20;101647.16;;;19.81;64.17
71976;BME280;68326;52.124;5.424;2023-06-10T05:56:46;101648.38;;;19.88;63.39
71976;BME280;68326;52.124;5.424;2023-06-10T05:59:13;101647.28;;;19.91;63.14
71976;BME280;68326;52.124;5.424;2023-06-10T06:01:39;101647.53;;;19.99;62.83
71976;BME280;68326;52.124;5.424;2023-06-10T06:04:06;101633.75;;;20.07;63.25
71976;BME280;68326;52.124;5.424;2023-06-10T06:06:32;101634.81;;;20.15;62.77
71976;BME280;68326;52.124;5.424;2023-06-10T06:08:59;101633.34;;;20.23;63.99
71976;BME280;68326;52.124;5.424;2023-06-10T06:11:25;101631.56;;;20.34;63.67
71976;BME280;68326;52.124;5.424;2023-06-10T06:13:52;101631.66;;;20.44;63.36
71976;BME280;68326;52.124;5.424;2023-06-10T06:16:19;101637.91;;;20.54;62.92
71976;BME280;68326;52.124;5.424;2023-06-10T06:18:46;101638.41;;;20.60;60.97
71976;BME280;68326;52.124;5.424;2023-06-10T06:21:12;101638.88;;;20.65;60.74
71976;BME280;68326;52.124;5.424;2023-06-10T06:23:39;101641.88;;;20.71;59.89
71976;BME280;68326;52.124;5.424;2023-06-10T06:26:05;101635.75;;;20.71;60.69
71976;BME280;68326;52.124;5.424;2023-06-10T06:28:34;101631.72;;;20.88;61.95
71976;BME280;68326;52.124;5.424;2023-06-10T06:31:00;101632.78;;;20.96;59.11
71976;BME280;68326;52.124;5.424;2023-06-10T06:33:27;101626.00;;;21.04;58.81
71976;BME280;68326;52.124;5.424;2023-06-10T06:35:54;101636.19;;;21.20;61.09
71976;BME280;68326;52.124;5.424;2023-06-10T06:38:20;101633.84;;;21.26;59.23
71976;BME280;68326;52.124;5.424;2023-06-10T06:40:47;101635.00;;;21.33;59.09
71976;BME280;68326;52.124;5.424;2023-06-10T06:43:13;101631.84;;;21.39;57.86
71976;BME280;68326;52.124;5.424;2023-06-10T06:45:40;101633.06;;;21.47;58.12
71976;BME280;68326;52.124;5.424;2023-06-10T06:48:06;101629.63;;;21.56;58.03
71976;BME280;68326;52.124;5.424;2023-06-10T06:50:33;101632.34;;;21.66;58.85
71976;BME280;68326;52.124;5.424;2023-06-10T06:52:59;101630.84;;;21.73;57.91
71976;BME280;68326;52.124;5.424;2023-06-10T06:55:26;101630.38;;;21.89;57.11
71976;BME280;68326;52.124;5.424;2023-06-10T06:57:52;101644.50;;;21.99;56.24
71976;BME280;68326;52.124;5.424;2023-06-10T07:00:19;101631.97;;;22.01;55.83
71976;BME280;68326;52.124;5.424;2023-06-10T07:02:45;101634.78;;;22.09;54.86
71976;BME280;68326;52.124;5.424;2023-06-10T07:05:12;101638.34;;;22.19;56.18
71976;BME280;68326;52.124;5.424;2023-06-10T07:07:39;101640.97;;;22.19;54.60
71976;BME280;68326;52.124;5.424;2023-06-10T07:10:06;101642.84;;;22.29;55.59
71976;BME280;68326;52.124;5.424;2023-06-10T07:12:32;101642.78;;;22.40;55.12
71976;BME280;68326;52.124;5.424;2023-06-10T07:14:59;101644.31;;;22.52;56.19
71976;BME280;68326;52.124;5.424;2023-06-10T07:17:25;101645.19;;;22.63;55.98
71976;BME280;68326;52.124;5.424;2023-06-10T07:19:53;101645.22;;;22.72;55.36
71976;BME280;68326;52.124;5.424;2023-06-10T07:22:23;101643.53;;;22.71;54.62
71976;BME280;68326;52.124;5.424;2023-06-10T07:24:50;101647.16;;;22.80;54.94
71976;BME280;68326;52.124;5.424;2023-06-10T07:27:18;101646.91;;;22.83;54.66
71976;BME280;68326;52.124;5.424;2023-06-10T07:29:44;101647.47;;;22.87;56.32
71976;BME280;68326;52.124;5.424;2023-06-10T07:32:11;101645.09;;;22.93;53.38
71976;BME280;68326;52.124;5.424;2023-06-10T07:34:37;101641.63;;;23.03;53.74
71976;BME280;68326;52.124;5.424;2023-06-10T07:37:04;101643.44;;;23.12;54.92
71976;BME280;68326;52.124;5.424;2023-06-10T07:39:30;101646.25;;;23.10;53.92
71976;BME280;68326;52.124;5.424;2023-06-10T07:41:57;101645.84;;;23.15;54.85
71976;BME280;68326;52.124;5.424;2023-06-10T07:44:23;101646.69;;;23.25;54.07
71976;BME280;68326;52.124;5.424;2023-06-10T07:46:50;101645.53;;;23.37;52.97
71976;BME280;68326;52.124;5.424;2023-06-10T07:49:17;101646.22;;;23.39;52.85
71976;BME280;68326;52.124;5.424;2023-06-10T07:51:43;101651.84;;;23.46;53.04
71976;BME280;68326;52.124;5.424;2023-06-10T07:54:10;101652.22;;;23.51;53.06
71976;BME280;68326;52.124;5.424;2023-06-10T07:56:39;101654.19;;;23.59;53.05
71976;BME280;68326;52.124;5.424;2023-06-10T07:59:05;101657.25;;;23.64;52.28
71976;BME280;68326;52.124;5.424;2023-06-10T08:01:32;101658.78;;;23.76;52.49
71976;BME280;68326;52.124;5.424;2023-06-10T08:03:59;101653.88;;;23.81;52.44
71976;BME280;68326;52.124;5.424;2023-06-10T08:06:26;101656.09;;;23.86;52.61
71976;BME280;68326;52.124;5.424;2023-06-10T08:08:52;101660.00;;;23.92;51.91
71976;BME280;68326;52.124;5.424;2023-06-10T08:11:19;101653.97;;;23.99;50.97
71976;BME280;68326;52.124;5.424;2023-06-10T08:13:46;101651.69;;;24.14;54.72
71976;BME280;68326;52.124;5.424;2023-06-10T08:16:13;101654.34;;;24.14;50.83
71976;BME280;68326;52.124;5.424;2023-06-10T08:18:40;101657.94;;;24.23;51.40
71976;BME280;68326;52.124;5.424;2023-06-10T08:21:06;101646.78;;;24.37;51.42
71976;BME280;68326;52.124;5.424;2023-06-10T08:23:33;101644.34;;;24.54;50.86
71976;BME280;68326;52.124;5.424;2023-06-10T08:25:59;101646.13;;;24.63;50.76
71976;BME280;68326;52.124;5.424;2023-06-10T08:28:26;101647.66;;;24.66;52.46
71976;BME280;68326;52.124;5.424;2023-06-10T08:30:52;101642.78;;;24.79;51.32
71976;BME280;68326;52.124;5.424;2023-06-10T08:33:22;101650.72;;;24.89;49.01
71976;BME280;68326;52.124;5.424;2023-06-10T08:35:49;101649.56;;;24.91;49.50
71976;BME280;68326;52.124;5.424;2023-06-10T08:38:15;101647.50;;;25.03;50.30
71976;BME280;68326;52.124;5.424;2023-06-10T08:40:42;101650.47;;;25.18;48.43
71976;BME280;68326;52.124;5.424;2023-06-10T08:43:45;101642.78;;;25.33;49.14
71976;BME280;68326;52.124;5.424;2023-06-10T08:46:14;101655.97;;;25.34;47.68
71976;BME280;68326;52.124;5.424;2023-06-10T08:48:43;101648.19;;;25.41;49.60
71976;BME280;68326;52.124;5.424;2023-06-10T08:51:13;101648.72;;;25.45;46.78
71976;BME280;68326;52.124;5.424;2023-06-10T08:53:49;101643.03;;;25.66;48.71
71976;BME280;68326;52.124;5.424;2023-06-10T08:56:17;101643.19;;;25.64;45.88
71976;BME280;68326;52.124;5.424;2023-06-10T08:58:44;101648.94;;;25.77;47.36
71976;BME280;68326;52.124;5.424;2023-06-10T09:01:12;101649.75;;;25.96;48.23
71976;BME280;68326;52.124;5.424;2023-06-10T09:03:39;101651.28;;;26.07;48.38
71976;BME280;68326;52.124;5.424;2023-06-10T09:06:08;101651.47;;;26.13;43.96
71976;BME280;68326;52.124;5.424;2023-06-10T09:08:35;101649.34;;;26.17;44.07
71976;BME280;68326;52.124;5.424;2023-06-10T09:11:01;101647.88;;;26.31;45.14
71976;BME280;68326;52.124;5.424;2023-06-10T09:13:29;101658.28;;;26.42;45.49
71976;BME280;68326;52.124;5.424;2023-06-10T09:15:55;101647.84;;;26.57;45.77
71976;BME280;68326;52.124;5.424;2023-06-10T09:18:27;101649.00;;;26.62;47.64
71976;BME280;68326;52.124;5.424;2023-06-10T09:20:54;101646.53;;;26.61;43.90
71976;BME280;68326;52.124;5.424;2023-06-10T09:23:21;101651.22;;;26.75;45.22
71976;BME280;68326;52.124;5.424;2023-06-10T09:25:56;101652.41;;;26.89;44.71
71976;BME280;68326;52.124;5.424;2023-06-10T09:28:24;101643.41;;;26.82;42.53
71976;BME280;68326;52.124;5.424;2023-06-10T09:31:02;101650.72;;;26.88;43.67
71976;BME280;68326;52.124;5.424;2023-06-10T09:33:29;101644.72;;;26.86;42.28
71976;BME280;68326;52.124;5.424;2023-06-10T09:35:56;101646.72;;;26.92;42.89
71976;BME280;68326;52.124;5.424;2023-06-10T09:38:32;101645.75;;;27.18;42.29
71976;BME280;68326;52.124;5.424;2023-06-10T09:40:58;101638.09;;;27.23;42.82
71976;BME280;68326;52.124;5.424;2023-06-10T09:43:41;101645.25;;;27.39;41.86
71976;BME280;68326;52.124;5.424;2023-06-10T09:46:17;101637.91;;;27.49;43.17
71976;BME280;68326;52.124;5.424;2023-06-10T09:48:45;101636.38;;;27.63;42.64
71976;BME280;68326;52.124;5.424;2023-06-10T09:51:15;101635.66;;;27.77;41.50
71976;BME280;68326;52.124;5.424;2023-06-10T09:53:49;101632.31;;;27.92;40.77
71976;BME280;68326;52.124;5.424;2023-06-10T09:56:17;101632.00;;;27.87;41.62
71976;BME280;68326;52.124;5.424;2023-06-10T09:58:44;101638.34;;;27.77;38.22
71976;BME280;68326;52.124;5.424;2023-06-10T10:01:13;101638.50;;;27.84;39.47
71976;BME280;68326;52.124;5.424;2023-06-10T10:03:49;101641.16;;;27.92;38.96
71976;BME280;68326;52.124;5.424;2023-06-10T10:06:18;101638.16;;;27.95;39.61
71976;BME280;68326;52.124;5.424;2023-06-10T10:08:50;101638.59;;;28.15;41.40
71976;BME280;68326;52.124;5.424;2023-06-10T10:11:19;101635.56;;;28.18;39.14
71976;BME280;68326;52.124;5.424;2023-06-10T10:13:48;101636.09;;;28.14;40.15
71976;BME280;68326;52.124;5.424;2023-06-10T10:16:16;101628.06;;;28.14;37.53
71976;BME280;68326;52.124;5.424;2023-06-10T10:18:59;101627.19;;;28.21;39.43
71976;BME280;68326;52.124;5.424;2023-06-10T10:21:32;101630.78;;;28.37;38.72
71976;BME280;68326;52.124;5.424;2023-06-10T10:24:32;101616.75;;;28.66;38.62
71976;BME280;68326;52.124;5.424;2023-06-10T10:27:01;101619.44;;;28.66;35.13
71976;BME280;68326;52.124;5.424;2023-06-10T10:29:39;101624.84;;;28.81;38.83
71976;BME280;68326;52.124;5.424;2023-06-10T10:32:09;101630.75;;;28.76;36.58
71976;BME280;68326;52.124;5.424;2023-06-10T10:35:05;101623.13;;;28.88;37.53
71976;BME280;68326;52.124;5.424;2023-06-10T10:37:35;101621.47;;;28.87;37.56
71976;BME280;68326;52.124;5.424;2023-06-10T10:40:02;101616.44;;;29.07;34.61
71976;BME280;68326;52.124;5.424;2023-06-10T10:42:30;101612.22;;;29.13;34.71
71976;BME280;68326;52.124;5.424;2023-06-10T10:44:58;101612.59;;;29.10;33.40
71976;BME280;68326;52.124;5.424;2023-06-10T10:47:27;101612.44;;;29.26;34.84
71976;BME280;68326;52.124;5.424;2023-06-10T10:49:56;101605.69;;;29.30;33.58
71976;BME280;68326;52.124;5.424;2023-06-10T10:52:27;101612.38;;;29.34;35.34
71976;BME280;68326;52.124;5.424;2023-06-10T10:54:54;101602.38;;;29.28;31.42
71976;BME280;68326;52.124;5.424;2023-06-10T10:57:22;101609.97;;;29.24;32.52
71976;BME280;68326;52.124;5.424;2023-06-10T11:05:06;101613.69;;;29.68;36.87
71976;BME280;68326;52.124;5.424;2023-06-10T11:07:34;101608.31;;;29.68;33.49
71976;BME280;68326;52.124;5.424;2023-06-10T11:10:11;101598.41;;;29.54;32.74
71976;BME280;68326;52.124;5.424;2023-06-10T11:15:08;101594.91;;;29.53;33.53
71976;BME280;68326;52.124;5.424;2023-06-10T11:17:35;101597.88;;;29.58;33.34
71976;BME280;68326;52.124;5.424;2023-06-10T11:20:02;101593.00;;;29.77;33.40
71976;BME280;68326;52.124;5.424;2023-06-10T11:22:29;101586.31;;;29.87;32.42
71976;BME280;68326;52.124;5.424;2023-06-10T11:24:55;101586.88;;;29.83;32.43
71976;BME280;68326;52.124;5.424;2023-06-10T11:27:25;101585.56;;;29.94;33.74
71976;BME280;68326;52.124;5.424;2023-06-10T11:32:31;101591.66;;;30.02;32.37
71976;BME280;68326;52.124;5.424;2023-06-10T11:34:59;101587.47;;;30.15;32.93
71976;BME280;68326;52.124;5.424;2023-06-10T11:37:27;101584.09;;;30.06;31.54
71976;BME280;68326;52.124;5.424;2023-06-10T11:39:54;101591.47;;;30.19;32.68
71976;BME280;68326;52.124;5.424;2023-06-10T11:42:22;101580.47;;;30.28;32.42
71976;BME280;68326;52.124;5.424;2023-06-10T11:44:49;101586.34;;;30.24;32.22
71976;BME280;68326;52.124;5.424;2023-06-10T11:47:17;101588.84;;;30.25;33.59
71976;BME280;68326;52.124;5.424;2023-06-10T11:49:44;101586.91;;;30.19;32.02
71976;BME280;68326;52.124;5.424;2023-06-10T11:52:14;101574.41;;;30.26;31.31
71976;BME280;68326;52.124;5.424;2023-06-10T11:54:40;101583.22;;;30.20;30.55
71976;BME280;68326;52.124;5.424;2023-06-10T11:57:07;101569.03;;;30.26;33.42
71976;BME280;68326;52.124;5.424;2023-06-10T11:59:34;101571.00;;;30.33;31.82
71976;BME280;68326;52.124;5.424;2023-06-10T12:02:01;101573.00;;;30.45;32.52
71976;BME280;68326;52.124;5.424;2023-06-10T12:04:28;101570.72;;;30.49;31.89
71976;BME280;68326;52.124;5.424;2023-06-10T12:06:55;101572.47;;;30.57;31.94
71976;BME280;68326;52.124;5.424;2023-06-10T12:09:29;101567.28;;;30.55;32.46
71976;BME280;68326;52.124;5.424;2023-06-10T12:12:00;101563.44;;;30.64;33.81
71976;BME280;68326;52.124;5.424;2023-06-10T12:14:53;101559.88;;;30.57;31.92
71976;BME280;68326;52.124;5.424;2023-06-10T12:17:36;101548.66;;;30.54;31.76
71976;BME280;68326;52.124;5.424;2023-06-10T12:20:08;101552.00;;;30.34;31.88
71976;BME280;68326;52.124;5.424;2023-06-10T12:22:43;101546.25;;;30.37;32.57
71976;BME280;68326;52.124;5.424;2023-06-10T12:25:10;101544.50;;;30.30;31.04
71976;BME280;68326;52.124;5.424;2023-06-10T12:27:39;101549.59;;;30.24;31.13
71976;BME280;68326;52.124;5.424;2023-06-10T12:30:07;101547.72;;;30.03;34.01
71976;BME280;68326;52.124;5.424;2023-06-10T12:35:05;101541.66;;;30.16;32.19
71976;BME280;68326;52.124;5.424;2023-06-10T12:37:33;101539.72;;;30.10;31.05
71976;BME280;68326;52.124;5.424;2023-06-10T12:40:01;101544.72;;;30.13;33.57
71976;BME280;68326;52.124;5.424;2023-06-10T12:42:32;101545.09;;;30.10;29.95
71976;BME280;68326;52.124;5.424;2023-06-10T12:45:01;101540.19;;;30.14;31.78
71976;BME280;68326;52.124;5.424;2023-06-10T12:47:35;101545.09;;;30.10;32.52
71976;BME280;68326;52.124;5.424;2023-06-10T12:50:02;101534.09;;;30.05;31.13
71976;BME280;68326;52.124;5.424;2023-06-10T12:52:29;101548.47;;;29.97;30.19
71976;BME280;68326;52.124;5.424;2023-06-10T12:54:56;101547.91;;;30.02;31.25
71976;BME280;68326;52.124;5.424;2023-06-10T12:57:23;101542.78;;;30.07;30.84
71976;BME280;68326;52.124;5.424;2023-06-10T12:59:50;101538.91;;;30.10;29.42
71976;BME280;68326;52.124;5.424;2023-06-10T13:02:19;101541.38;;;30.11;31.85
71976;BME280;68326;52.124;5.424;2023-06-10T13:04:47;101542.25;;;30.12;32.04
71976;BME280;68326;52.124;5.424;2023-06-10T13:07:14;101545.47;;;30.07;32.54
71976;BME280;68326;52.124;5.424;2023-06-10T13:09:42;101543.75;;;29.99;31.91
71976;BME280;68326;52.124;5.424;2023-06-10T13:12:09;101535.03;;;29.97;32.14